createdAt,value
2023-05-18T00:02:04.107Z,100412.69
2023-05-18T00:05:08.981Z,100411.06
2023-05-18T00:08:11.689Z,100411.69
2023-05-18T00:11:14.240Z,100417.84
2023-05-18T00:14:17.017Z,100420.75
2023-05-18T00:17:20.351Z,100420.78
2023-05-18T00:20:26.610Z,100427.00
2023-05-18T00:23:31.097Z,100435.22
2023-05-18T00:26:33.889Z,100425.94
2023-05-18T00:29:37.262Z,100436.00
2023-05-18T00:32:39.885Z,100435.34
2023-05-18T00:35:42.530Z,100437.19
2023-05-18T00:38:45.928Z,100439.34
2023-05-18T00:41:48.524Z,100439.78
2023-05-18T00:44:51.120Z,100435.28
2023-05-18T00:47:53.662Z,100438.34
2023-05-18T00:50:56.441Z,100430.69
2023-05-18T00:54:01.609Z,100432.72
2023-05-18T00:57:05.447Z,100437.72
2023-05-18T01:00:10.904Z,100443.66
2023-05-18T01:03:15.430Z,100448.22
2023-05-18T01:06:18.554Z,100442.06
2023-05-18T01:09:21.164Z,100457.13
2023-05-18T01:12:37.566Z,100454.09
2023-05-18T01:15:42.002Z,100451.41
2023-05-18T01:18:55.099Z,100445.31
2023-05-18T01:22:09.156Z,100456.56
2023-05-18T01:25:41.033Z,100458.88
2023-05-18T01:28:46.703Z,100467.00
2023-05-18T01:31:49.340Z,100461.44
2023-05-18T01:34:52.309Z,100461.41
2023-05-18T01:37:54.899Z,100465.78
2023-05-18T01:41:08.439Z,100467.00
2023-05-18T01:44:17.545Z,100470.53
2023-05-18T01:47:20.097Z,100474.25
2023-05-18T01:50:29.654Z,100478.44
2023-05-18T01:53:46.616Z,100478.44
2023-05-18T01:56:51.402Z,100481.09
2023-05-18T01:59:55.520Z,100474.53
2023-05-18T02:02:58.673Z,100485.47
2023-05-18T02:06:01.279Z,100484.84
2023-05-18T02:09:07.155Z,100479.50
2023-05-18T02:12:10.328Z,100482.47
2023-05-18T02:15:12.909Z,100483.47
2023-05-18T02:18:16.628Z,100483.69
2023-05-18T02:21:19.204Z,100488.47
2023-05-18T02:24:23.257Z,100488.41
2023-05-18T02:27:26.011Z,100494.63
2023-05-18T02:30:29.957Z,100492.16
2023-05-18T02:33:36.411Z,100497.09
2023-05-18T02:36:40.445Z,100495.66
2023-05-18T02:39:43.183Z,100491.72
2023-05-18T02:42:45.962Z,100495.47
2023-05-18T02:45:48.490Z,100498.53
2023-05-18T02:48:51.148Z,100496.72
2023-05-18T02:51:53.693Z,100491.16
2023-05-18T02:54:56.356Z,100491.56
2023-05-18T02:58:14.226Z,100492.16
2023-05-18T03:01:49.376Z,100488.47
2023-05-18T03:04:54.260Z,100496.50
2023-05-18T03:07:57.759Z,100496.50
2023-05-18T03:11:00.485Z,100497.72
2023-05-18T03:14:03.074Z,100501.84
2023-05-18T03:17:06.318Z,100498.34
2023-05-18T03:20:15.684Z,100503.69
2023-05-18T03:23:20.147Z,100503.91
2023-05-18T03:26:26.147Z,100506.75
2023-05-18T03:29:31.325Z,100504.50
2023-05-18T03:32:37.282Z,100514.59
2023-05-18T03:35:40.914Z,100515.41
2023-05-18T03:38:45.975Z,100513.16
2023-05-18T03:41:49.396Z,100526.56
2023-05-18T03:44:52.387Z,100525.50
2023-05-18T03:47:55.041Z,100523.03
2023-05-18T03:50:58.020Z,100532.31
2023-05-18T03:54:03.511Z,100535.22
2023-05-18T03:57:06.062Z,100531.28
2023-05-18T04:00:12.378Z,100532.75
2023-05-18T04:03:21.734Z,100540.38
2023-05-18T04:06:26.922Z,100536.00
2023-05-18T04:09:29.566Z,100543.66
2023-05-18T04:12:32.117Z,100544.47
2023-05-18T04:15:34.680Z,100538.91
2023-05-18T04:18:38.104Z,100552.31
2023-05-18T04:21:43.700Z,100549.81
2023-05-18T04:24:47.718Z,100559.09
2023-05-18T04:27:51.575Z,100550.19
2023-05-18T04:30:54.596Z,100556.63
2023-05-18T04:33:58.538Z,100555.59
2023-05-18T04:37:01.998Z,100558.28
2023-05-18T04:40:07.606Z,100559.28
2023-05-18T04:43:11.370Z,100559.91
2023-05-18T04:46:16.992Z,100565.69
2023-05-18T04:49:26.229Z,100562.38
2023-05-18T04:52:30.910Z,100567.53
2023-05-18T04:55:34.090Z,100567.31
2023-05-18T04:58:46.126Z,100562.81
2023-05-18T05:01:48.711Z,100567.94
2023-05-18T05:04:51.595Z,100570.00
2023-05-18T05:07:55.760Z,100580.09
2023-05-18T05:10:58.366Z,100576.44
2023-05-18T05:14:03.222Z,100576.63
2023-05-18T05:17:06.665Z,100575.00
2023-05-18T05:20:09.803Z,100573.09
2023-05-18T05:23:13.398Z,100575.00
2023-05-18T05:26:20.316Z,100582.78
2023-05-18T05:29:24.080Z,100588.56
2023-05-18T05:32:27.210Z,100598.88
2023-05-18T05:35:33.387Z,100591.88
2023-05-18T05:38:36.588Z,100590.41
2023-05-18T05:41:40.191Z,100595.56
2023-05-18T05:44:44.101Z,100597.25
2023-05-18T05:47:47.664Z,100598.88
2023-05-18T05:50:53.062Z,100605.00
2023-05-18T05:53:55.754Z,100605.22
2023-05-18T05:56:58.471Z,100608.31
2023-05-18T06:00:01.769Z,100613.06
2023-05-18T06:03:11.333Z,100613.97
2023-05-18T06:06:18.010Z,100623.03
2023-05-18T06:09:20.625Z,100620.31
2023-05-18T06:12:24.608Z,100619.94
2023-05-18T06:15:27.191Z,100623.44
2023-05-18T06:18:29.932Z,100634.34
2023-05-18T06:21:38.673Z,100631.69
2023-05-18T06:24:41.353Z,100628.19
2023-05-18T06:28:08.607Z,100635.63
2023-05-18T06:31:21.216Z,100639.53
2023-05-18T06:34:31.444Z,100646.75
2023-05-18T06:37:34.213Z,100638.91
2023-05-18T06:40:36.978Z,100646.13
2023-05-18T06:43:39.655Z,100654.16
2023-05-18T06:46:57.949Z,100652.09
2023-05-18T06:50:05.444Z,100662.41
2023-05-18T06:53:08.464Z,100659.75
2023-05-18T06:56:14.764Z,100660.56
2023-05-18T06:59:19.479Z,100656.44
2023-05-18T07:02:22.397Z,100655.59
2023-05-18T07:05:25.477Z,100664.28
2023-05-18T07:08:28.244Z,100665.31
2023-05-18T07:11:30.841Z,100669.41
2023-05-18T07:14:33.550Z,100670.84
2023-05-18T07:17:36.264Z,100672.09
2023-05-18T07:20:38.963Z,100678.09
2023-05-18T07:23:41.576Z,100674.56
2023-05-18T07:26:44.168Z,100682.00
2023-05-18T07:29:46.784Z,100683.00
2023-05-18T07:32:49.488Z,100686.72
2023-05-18T07:35:52.210Z,100694.78
2023-05-18T07:38:55.062Z,100684.22
2023-05-18T07:41:59.585Z,100694.34
2023-05-18T07:45:02.300Z,100692.88
2023-05-18T07:48:05.137Z,100696.97
2023-05-18T07:51:08.355Z,100694.44
2023-05-18T07:54:11.189Z,100704.97
2023-05-18T07:57:16.749Z,100701.25
2023-05-18T08:00:20.649Z,100704.97
2023-05-18T08:03:24.555Z,100705.97
2023-05-18T08:06:27.425Z,100705.44
2023-05-18T08:09:30.081Z,100712.69
2023-05-18T08:12:33.016Z,100704.56
2023-05-18T08:15:38.267Z,100717.38
2023-05-18T08:18:44.021Z,100711.56
2023-05-18T08:21:46.630Z,100716.84
2023-05-18T08:24:49.536Z,100708.84
2023-05-18T08:27:53.482Z,100712.44
2023-05-18T08:30:56.432Z,100712.72
2023-05-18T08:33:59.696Z,100717.00
2023-05-18T08:37:02.272Z,100713.88
2023-05-18T08:40:08.122Z,100712.25
2023-05-18T08:43:30.033Z,100709.41
2023-05-18T08:46:35.489Z,100715.75
2023-05-18T08:49:40.435Z,100706.25
2023-05-18T08:52:48.449Z,100714.31
2023-05-18T08:55:54.329Z,100705.97
2023-05-18T08:58:58.254Z,100700.91
2023-05-18T09:02:01.290Z,100707.38
2023-05-18T09:05:04.224Z,100712.81
2023-05-18T09:08:08.446Z,100714.25
2023-05-18T09:11:13.646Z,100711.31
2023-05-18T09:14:16.577Z,100706.06
2023-05-18T09:17:22.991Z,100708.28
2023-05-18T09:20:26.477Z,100708.56
2023-05-18T09:23:29.264Z,100715.47
2023-05-18T09:26:32.086Z,100712.53
2023-05-18T09:29:34.652Z,100710.63
2023-05-18T09:32:37.539Z,100710.53
2023-05-18T09:35:40.172Z,100715.84
2023-05-18T09:38:46.790Z,100709.75
2023-05-18T09:41:57.656Z,100722.78
2023-05-18T09:45:01.222Z,100722.13
2023-05-18T09:48:07.674Z,100723.66
2023-05-18T09:51:16.770Z,100731.25
2023-05-18T09:54:19.535Z,100722.41
2023-05-18T09:57:22.084Z,100733.72
2023-05-18T10:00:26.067Z,100729.19
2023-05-18T10:03:38.887Z,100736.69
2023-05-18T10:06:49.709Z,100729.59
2023-05-18T10:10:03.530Z,100724.25
2023-05-18T10:13:06.262Z,100733.41
2023-05-18T10:16:08.903Z,100723.53
2023-05-18T10:19:13.860Z,100721.47
2023-05-18T10:22:18.309Z,100717.47
2023-05-18T10:25:24.862Z,100720.38
2023-05-18T10:28:42.125Z,100719.63
2023-05-18T10:31:46.174Z,100720.81
2023-05-18T10:34:51.780Z,100720.63
2023-05-18T10:37:56.252Z,100725.44
2023-05-18T10:41:00.438Z,100719.13
2023-05-18T10:44:04.227Z,100721.88
2023-05-18T10:47:08.596Z,100733.84
2023-05-18T10:50:11.779Z,100723.31
2023-05-18T10:53:17.327Z,100722.41
2023-05-18T10:56:19.910Z,100723.63
2023-05-18T10:59:25.643Z,100724.88
2023-05-18T11:02:28.781Z,100720.97
2023-05-18T11:05:31.430Z,100721.34
2023-05-18T11:08:34.288Z,100724.66
2023-05-18T11:11:56.938Z,100729.16
2023-05-18T11:15:01.304Z,100725.69
2023-05-18T11:18:14.126Z,100735.56
2023-05-18T11:21:20.256Z,100736.63
2023-05-18T11:24:32.314Z,100728.31
2023-05-18T11:27:35.016Z,100734.22
2023-05-18T11:30:37.568Z,100735.34
2023-05-18T11:33:43.105Z,100738.84
2023-05-18T11:36:46.590Z,100743.13
2023-05-18T11:40:00.041Z,100745.75
2023-05-18T11:43:04.790Z,100739.91
2023-05-18T11:46:19.011Z,100742.38
2023-05-18T11:49:25.197Z,100742.72
2023-05-18T11:52:28.035Z,100742.28
2023-05-18T11:55:41.692Z,100750.38
2023-05-18T11:58:44.954Z,100744.56
2023-05-18T12:01:47.690Z,100742.25
2023-05-18T12:04:53.369Z,100750.34
2023-05-18T12:07:56.405Z,100748.38
2023-05-18T12:10:59.729Z,100750.16
2023-05-18T12:14:03.178Z,100750.38
2023-05-18T12:17:06.720Z,100750.16
2023-05-18T12:20:11.883Z,100750.16
2023-05-18T12:23:15.724Z,100754.44
2023-05-18T12:26:22.776Z,100747.59
2023-05-18T12:29:27.199Z,100747.34
2023-05-18T12:32:30.790Z,100749.84
2023-05-18T12:35:33.777Z,100744.81
2023-05-18T12:38:36.683Z,100739.53
2023-05-18T12:41:39.208Z,100743.63
2023-05-18T12:44:46.339Z,100749.47
2023-05-18T12:47:54.498Z,100746.53
2023-05-18T12:50:57.502Z,100747.34
2023-05-18T12:54:00.254Z,100743.19
2023-05-18T12:57:07.763Z,100745.00
2023-05-18T13:00:12.725Z,100746.91
2023-05-18T13:03:17.733Z,100750.38
2023-05-18T13:06:20.726Z,100746.84
2023-05-18T13:09:23.307Z,100747.66
2023-05-18T13:12:48.423Z,100749.00
2023-05-18T13:15:52.037Z,100745.91
2023-05-18T13:19:02.690Z,100752.28
2023-05-18T13:22:05.293Z,100746.22
2023-05-18T13:25:08.526Z,100749.28
2023-05-18T13:28:12.632Z,100754.13
2023-05-18T13:31:15.840Z,100747.75
2023-05-18T13:34:18.619Z,100755.38
2023-05-18T13:37:21.375Z,100757.09
2023-05-18T13:40:25.772Z,100759.41
2023-05-18T13:43:29.406Z,100766.00
2023-05-18T13:46:32.233Z,100760.44
2023-05-18T13:49:34.798Z,100759.38
2023-05-18T13:52:37.772Z,100755.34
2023-05-18T13:55:40.919Z,100757.66
2023-05-18T13:58:44.761Z,100763.63
2023-05-18T14:01:47.775Z,100770.38
2023-05-18T14:04:50.652Z,100764.03
2023-05-18T14:07:53.529Z,100766.38
2023-05-18T14:10:56.328Z,100765.44
2023-05-18T14:14:00.144Z,100760.28
2023-05-18T14:17:03.406Z,100772.63
2023-05-18T14:20:07.428Z,100773.72
2023-05-18T14:23:10.800Z,100775.88
2023-05-18T14:26:14.884Z,100777.19
2023-05-18T14:29:17.416Z,100780.31
2023-05-18T14:32:23.473Z,100784.16
2023-05-18T14:35:26.545Z,100784.19
2023-05-18T14:38:29.466Z,100768.44
2023-05-18T14:41:31.973Z,100787.16
2023-05-18T14:44:34.596Z,100782.72
2023-05-18T14:47:37.194Z,100774.22
2023-05-18T14:50:40.161Z,100777.53
2023-05-18T14:53:42.981Z,100785.38
2023-05-18T14:56:45.834Z,100785.03
2023-05-18T14:59:48.454Z,100787.50
2023-05-18T15:02:51.063Z,100798.22
2023-05-18T15:05:53.659Z,100783.72
2023-05-18T15:08:56.547Z,100787.34
2023-05-18T15:11:59.293Z,100788.50
2023-05-18T15:15:01.949Z,100785.41
2023-05-18T15:18:04.705Z,100789.00
2023-05-18T15:21:07.303Z,100795.06
2023-05-18T15:24:09.801Z,100795.56
2023-05-18T15:27:12.762Z,100795.56
2023-05-18T15:30:15.498Z,100798.63
2023-05-18T15:33:18.000Z,100798.25
2023-05-18T15:36:21.853Z,100797.22
2023-05-18T15:39:24.422Z,100798.97
2023-05-18T15:42:27.215Z,100795.47
2023-05-18T15:45:29.917Z,100796.75
2023-05-18T15:48:32.529Z,100792.28
2023-05-18T15:51:35.206Z,100802.41
2023-05-18T15:54:37.780Z,100801.19
2023-05-18T15:57:40.340Z,100802.66
2023-05-18T16:00:43.073Z,100803.59
2023-05-18T16:03:46.102Z,100805.69
2023-05-18T16:06:48.835Z,100802.88
2023-05-18T16:09:51.348Z,100810.94
2023-05-18T16:12:53.868Z,100803.19
2023-05-18T16:15:56.698Z,100801.09
2023-05-18T16:19:00.818Z,100802.19
2023-05-18T16:22:03.467Z,100803.47
2023-05-18T16:25:06.271Z,100806.41
2023-05-18T16:28:09.214Z,100804.88
2023-05-18T16:31:12.368Z,100806.50
2023-05-18T16:34:14.996Z,100812.19
2023-05-18T16:37:17.472Z,100811.00
2023-05-18T16:40:21.278Z,100809.75
2023-05-18T16:43:23.819Z,100814.31
2023-05-18T16:46:26.364Z,100815.41
2023-05-18T16:49:28.910Z,100820.34
2023-05-18T16:52:31.492Z,100814.41
2023-05-18T16:55:34.188Z,100814.34
2023-05-18T16:58:36.841Z,100814.25
2023-05-18T17:01:39.449Z,100812.44
2023-05-18T17:04:44.475Z,100822.16
2023-05-18T17:07:47.383Z,100816.19
2023-05-18T17:10:49.992Z,100820.06
2023-05-18T17:13:52.743Z,100818.41
2023-05-18T17:16:55.368Z,100822.16
2023-05-18T17:19:57.869Z,100824.44
2023-05-18T17:23:01.964Z,100823.06
2023-05-18T17:26:06.364Z,100823.50
2023-05-18T17:29:09.609Z,100819.16
2023-05-18T17:32:12.646Z,100824.38
2023-05-18T17:35:15.233Z,100831.59
2023-05-18T17:38:17.843Z,100835.16
2023-05-18T17:41:22.420Z,100836.94
2023-05-18T17:44:24.939Z,100833.06
2023-05-18T17:47:27.638Z,100835.78
2023-05-18T17:50:30.395Z,100838.28
2023-05-18T17:53:33.907Z,100827.94
2023-05-18T17:56:36.724Z,100828.25
2023-05-18T17:59:39.283Z,100833.78
2023-05-18T18:02:41.862Z,100835.22
2023-05-18T18:05:44.399Z,100829.84
2023-05-18T18:08:46.989Z,100823.19
2023-05-18T18:11:49.793Z,100822.13
2023-05-18T18:14:52.791Z,100822.78
2023-05-18T18:17:56.582Z,100839.13
2023-05-18T18:20:59.296Z,100851.81
2023-05-18T18:24:02.896Z,100838.59
2023-05-18T18:27:05.775Z,100836.13
2023-05-18T18:30:08.866Z,100846.47
2023-05-18T18:33:11.845Z,100856.59
2023-05-18T18:36:14.516Z,100854.09
2023-05-18T18:39:17.047Z,100855.78
2023-05-18T18:42:21.509Z,100861.34
2023-05-18T18:45:27.050Z,100855.13
2023-05-18T18:48:29.596Z,100849.38
2023-05-18T18:51:32.643Z,100863.44
2023-05-18T18:54:35.156Z,100863.44
2023-05-18T18:57:37.734Z,100868.25
2023-05-18T19:00:40.784Z,100874.22
2023-05-18T19:03:43.463Z,100876.66
2023-05-18T19:06:46.382Z,100877.28
2023-05-18T19:09:50.535Z,100879.56
2023-05-18T19:12:53.268Z,100886.78
2023-05-18T19:15:56.070Z,100880.75
2023-05-18T19:18:58.728Z,100888.41
2023-05-18T19:22:01.454Z,100887.41
2023-05-18T19:25:04.318Z,100893.41
2023-05-18T19:28:06.985Z,100898.59
2023-05-18T19:31:10.394Z,100899.00
2023-05-18T19:34:14.183Z,100899.84
2023-05-18T19:37:16.729Z,100895.09
2023-05-18T19:40:21.588Z,100905.44
2023-05-18T19:43:24.243Z,100907.91
2023-05-18T19:46:27.353Z,100919.88
2023-05-18T19:49:31.381Z,100919.28
2023-05-18T19:52:34.863Z,100925.25
2023-05-18T19:55:37.374Z,100936.22
2023-05-18T19:58:39.933Z,100933.72
2023-05-18T20:01:43.046Z,100932.69
2023-05-18T20:04:47.317Z,100931.66
2023-05-18T20:07:49.888Z,100943.66
2023-05-18T20:10:54.124Z,100947.81
2023-05-18T20:13:56.776Z,100954.03
2023-05-18T20:16:59.994Z,100956.06
2023-05-18T20:20:04.947Z,100952.34
2023-05-18T20:23:07.918Z,100957.28
2023-05-18T20:26:10.677Z,100967.44
2023-05-18T20:29:13.243Z,100959.97
2023-05-18T20:32:15.782Z,100967.03
2023-05-18T20:35:19.491Z,100964.97
2023-05-18T20:38:26.078Z,100963.31
2023-05-18T20:41:29.709Z,100956.69
2023-05-18T20:44:32.506Z,100966.19
2023-05-18T20:47:35.445Z,100961.03
2023-05-18T20:50:38.281Z,100963.31
2023-05-18T20:53:44.055Z,100959.59
2023-05-18T20:56:47.927Z,100964.75
2023-05-18T20:59:51.425Z,100966.63
2023-05-18T21:02:54.126Z,100970.97
2023-05-18T21:05:56.807Z,100970.97
2023-05-18T21:08:59.383Z,100970.97
2023-05-18T21:12:02.693Z,100975.09
2023-05-18T21:15:06.123Z,100972.19
2023-05-18T21:18:08.778Z,100976.31
2023-05-18T21:21:11.528Z,100983.78
2023-05-18T21:24:14.264Z,100987.28
2023-05-18T21:27:16.791Z,100988.75
2023-05-18T21:30:19.559Z,100977.78
2023-05-18T21:33:22.427Z,100978.78
2023-05-18T21:36:34.083Z,100978.63
2023-05-18T21:39:36.817Z,100984.41
2023-05-18T21:42:45.046Z,100980.69
2023-05-18T21:45:47.882Z,100985.88
2023-05-18T21:48:50.578Z,100991.63
2023-05-18T21:51:53.351Z,100996.81
2023-05-18T21:54:55.866Z,100991.84
2023-05-18T21:57:58.544Z,100997.84
2023-05-18T22:01:01.051Z,100991.66
2023-05-18T22:04:03.704Z,100991.44
2023-05-18T22:07:06.244Z,100995.16
2023-05-18T22:10:08.930Z,100996.16
2023-05-18T22:13:12.029Z,100995.53
2023-05-18T22:16:14.586Z,100999.91
2023-05-18T22:19:17.152Z,100997.19
2023-05-18T22:22:30.296Z,100999.88
2023-05-18T22:25:33.485Z,101002.78
2023-05-18T22:28:36.041Z,101007.34
2023-05-18T22:31:38.664Z,101006.50
2023-05-18T22:34:41.270Z,101009.59
2023-05-18T22:37:43.801Z,101001.28
2023-05-18T22:40:46.441Z,101002.38
2023-05-18T22:43:49.080Z,101001.91
2023-05-18T22:46:51.621Z,100999.66
2023-05-18T22:49:54.385Z,100993.88
2023-05-18T22:52:57.026Z,100992.84
2023-05-18T22:55:59.811Z,101000.91
2023-05-18T22:59:02.458Z,100997.56
2023-05-18T23:02:06.159Z,100990.75
2023-05-18T23:05:09.560Z,100992.81
2023-05-18T23:08:13.175Z,100990.53
2023-05-18T23:11:18.462Z,100992.81
2023-05-18T23:14:24.487Z,101001.28
2023-05-18T23:17:27.234Z,100998.81
2023-05-18T23:20:29.887Z,100994.88
2023-05-18T23:23:32.471Z,100988.88
2023-05-18T23:26:35.075Z,100986.63
2023-05-18T23:29:38.359Z,100986.44
2023-05-18T23:32:41.387Z,100985.22
2023-05-18T23:35:46.671Z,100986.44
2023-05-18T23:38:51.140Z,100986.41
2023-05-18T23:41:56.265Z,100998.59
2023-05-18T23:44:59.087Z,100988.47
2023-05-18T23:48:03.128Z,100991.38
2023-05-18T23:51:07.358Z,101001.47
2023-05-18T23:54:10.622Z,100994.03
2023-05-18T23:57:13.815Z,100994.03
